createdAt,value
2022-09-16T00:00:48.044Z,13.25
2022-09-16T00:03:17.932Z,10.18
2022-09-16T00:05:50.392Z,12.17
2022-09-16T00:08:18.937Z,10.77
2022-09-16T00:10:46.230Z,11.70
2022-09-16T00:13:14.158Z,10.63
2022-09-16T00:15:51.279Z,11.13
2022-09-16T00:18:20.580Z,11.68
2022-09-16T00:20:51.114Z,11.27
2022-09-16T00:23:19.368Z,12.30
2022-09-16T00:25:54.181Z,12.07
2022-09-16T00:28:22.349Z,11.13
2022-09-16T00:30:50.333Z,10.23
2022-09-16T00:33:18.434Z,10.23
2022-09-16T00:35:46.507Z,11.75
2022-09-16T00:38:13.884Z,11.95
2022-09-16T00:40:49.849Z,9.55
2022-09-16T00:43:19.214Z,11.10
2022-09-16T00:45:57.150Z,10.75
2022-09-16T00:48:27.611Z,11.85
2022-09-16T00:50:59.954Z,10.93
2022-09-16T00:53:31.502Z,10.32
2022-09-16T00:56:01.056Z,11.05
2022-09-16T00:58:31.032Z,10.20
2022-09-16T01:00:58.233Z,11.70
2022-09-16T01:03:26.333Z,10.68
2022-09-16T01:05:53.787Z,10.93
2022-09-16T01:08:21.088Z,10.60
2022-09-16T01:10:48.223Z,12.32
2022-09-16T01:13:16.308Z,10.98
2022-09-16T01:16:02.265Z,10.23
2022-09-16T01:18:38.161Z,9.98
2022-09-16T01:21:39.169Z,9.18
2022-09-16T01:27:01.993Z,8.20
2022-09-16T01:29:58.548Z,9.70
2022-09-16T01:32:39.815Z,9.73
2022-09-16T01:35:09.899Z,10.35
2022-09-16T01:38:07.381Z,10.93
2022-09-16T01:40:58.170Z,9.85
2022-09-16T01:44:07.901Z,9.77
2022-09-16T01:46:40.673Z,10.45
2022-09-16T01:49:32.340Z,11.25
2022-09-16T01:52:21.075Z,11.05
2022-09-16T01:54:51.257Z,10.75
2022-09-16T01:57:32.348Z,11.65
2022-09-16T02:00:14.502Z,11.90
2022-09-16T02:02:53.482Z,11.00
2022-09-16T02:05:46.237Z,10.73
2022-09-16T02:08:19.185Z,11.27
2022-09-16T02:10:53.943Z,11.02
2022-09-16T02:13:30.284Z,11.95
2022-09-16T02:16:04.058Z,11.05
2022-09-16T02:18:37.298Z,11.43
2022-09-16T02:21:07.292Z,10.27
2022-09-16T02:23:50.771Z,10.73
2022-09-16T02:26:23.287Z,9.70
2022-09-16T02:28:53.916Z,10.10
2022-09-16T02:31:26.758Z,9.65
2022-09-16T02:34:08.092Z,10.85
2022-09-16T02:36:38.148Z,11.05
2022-09-16T02:39:10.051Z,10.07
2022-09-16T02:41:39.641Z,10.57
2022-09-16T02:44:08.800Z,12.75
2022-09-16T02:47:08.671Z,12.27
2022-09-16T02:49:51.377Z,12.55
2022-09-16T02:52:33.941Z,12.27
2022-09-16T02:55:15.094Z,12.15
2022-09-16T02:57:42.459Z,12.30
2022-09-16T03:00:10.370Z,11.43
2022-09-16T03:02:37.675Z,12.57
2022-09-16T03:05:06.077Z,12.05
2022-09-16T03:07:34.071Z,13.02
2022-09-16T03:10:01.308Z,11.57
2022-09-16T03:12:50.415Z,11.30
2022-09-16T03:15:42.422Z,11.15
2022-09-16T03:18:46.895Z,11.63
2022-09-16T03:21:28.900Z,11.32
2022-09-16T03:24:14.721Z,11.38
2022-09-16T03:27:00.780Z,11.32
2022-09-16T03:29:39.784Z,10.88
2022-09-16T03:32:21.940Z,10.32
2022-09-16T03:34:55.655Z,11.10
2022-09-16T03:37:27.438Z,9.88
2022-09-16T03:40:00.324Z,11.57
2022-09-16T03:42:27.453Z,11.80
2022-09-16T03:44:54.709Z,9.93
2022-09-16T03:47:21.805Z,9.88
2022-09-16T03:49:48.916Z,11.18
2022-09-16T03:52:18.630Z,10.93
2022-09-16T03:54:46.150Z,11.87
2022-09-16T03:57:13.202Z,10.57
2022-09-16T03:59:41.241Z,10.45
2022-09-16T04:02:08.310Z,10.77
2022-09-16T04:04:54.298Z,9.95
2022-09-16T04:07:21.382Z,11.30
2022-09-16T04:09:48.515Z,10.98
2022-09-16T04:12:15.590Z,10.60
2022-09-16T04:14:42.727Z,11.30
2022-09-16T04:17:09.891Z,10.50
2022-09-16T04:19:36.998Z,9.88
2022-09-16T04:22:04.105Z,9.80
2022-09-16T04:24:31.216Z,11.48
2022-09-16T04:26:58.421Z,11.00
2022-09-16T04:29:25.512Z,10.05
2022-09-16T04:31:52.583Z,9.45
2022-09-16T04:34:19.697Z,11.68
2022-09-16T04:36:46.943Z,11.65
2022-09-16T04:39:14.200Z,11.75
2022-09-16T04:41:41.596Z,13.38
2022-09-16T04:44:10.499Z,12.85
2022-09-16T04:46:37.650Z,12.40
2022-09-16T04:49:04.987Z,11.38
2022-09-16T04:51:33.002Z,11.38
2022-09-16T04:54:01.551Z,10.10
2022-09-16T04:56:31.582Z,12.15
2022-09-16T04:59:01.103Z,11.15
2022-09-16T05:01:33.907Z,12.02
2022-09-16T05:04:03.382Z,12.05
2022-09-16T05:06:36.740Z,10.80
2022-09-16T05:09:04.331Z,10.45
2022-09-16T05:11:37.139Z,11.73
2022-09-16T05:14:06.914Z,10.82
2022-09-16T05:16:34.572Z,11.32
2022-09-16T05:19:05.021Z,10.50
2022-09-16T05:21:35.399Z,11.80
2022-09-16T05:24:04.483Z,10.88
2022-09-16T05:26:32.804Z,11.63
2022-09-16T05:29:05.635Z,10.55
2022-09-16T05:31:36.328Z,13.50
2022-09-16T05:36:37.760Z,10.77
2022-09-16T05:39:22.095Z,11.13
2022-09-16T05:41:56.939Z,10.73
2022-09-16T05:44:24.462Z,11.02
2022-09-16T05:46:51.945Z,10.30
2022-09-16T05:49:21.016Z,11.25
2022-09-16T05:51:49.294Z,10.20
2022-09-16T05:54:18.755Z,11.75
2022-09-16T05:56:47.204Z,10.75
2022-09-16T05:59:15.640Z,11.65
2022-09-16T06:01:43.257Z,12.95
2022-09-16T06:04:12.601Z,10.52
2022-09-16T06:06:41.887Z,10.70
2022-09-16T06:09:12.063Z,12.35
2022-09-16T06:11:42.011Z,10.82
2022-09-16T06:14:10.286Z,11.77
2022-09-16T06:16:38.337Z,11.20
2022-09-16T06:19:10.567Z,11.45
2022-09-16T06:21:38.369Z,10.13
2022-09-16T06:24:08.925Z,11.15
2022-09-16T06:29:06.349Z,9.57
2022-09-16T06:31:34.438Z,10.02
2022-09-16T06:34:01.933Z,12.18
2022-09-16T06:36:32.384Z,10.10
2022-09-16T06:38:59.742Z,11.25
2022-09-16T06:41:26.800Z,10.18
2022-09-16T06:43:53.980Z,9.77
2022-09-16T06:46:26.196Z,10.88
2022-09-16T06:48:58.515Z,10.10
2022-09-16T06:51:29.891Z,10.95
2022-09-16T06:54:04.015Z,10.25
2022-09-16T06:56:31.179Z,10.13
2022-09-16T06:58:58.311Z,10.43
2022-09-16T07:01:28.466Z,10.88
2022-09-16T07:03:57.562Z,10.43
2022-09-16T07:06:49.539Z,10.80
2022-09-16T07:09:15.070Z,10.52
2022-09-16T07:11:42.269Z,8.60
2022-09-16T07:14:09.764Z,11.02
2022-09-16T07:16:36.891Z,9.80
2022-09-16T07:19:04.777Z,10.98
2022-09-16T07:21:31.997Z,11.07
2022-09-16T07:24:02.582Z,10.75
2022-09-16T07:29:03.808Z,10.65
2022-09-16T07:31:34.343Z,10.30
2022-09-16T07:34:04.383Z,9.68
2022-09-16T07:39:01.636Z,10.20
2022-09-16T07:41:32.533Z,11.45
2022-09-16T07:46:29.995Z,9.48
2022-09-16T07:48:59.393Z,9.93
2022-09-16T07:51:28.015Z,10.38
2022-09-16T07:54:02.298Z,10.27
2022-09-16T07:56:31.613Z,9.18
2022-09-16T07:58:58.740Z,13.27
2022-09-16T08:01:26.213Z,9.55
2022-09-16T08:03:53.685Z,9.75
2022-09-16T08:06:23.700Z,9.93
2022-09-16T08:08:55.326Z,9.38
2022-09-16T08:11:23.044Z,9.40
2022-09-16T08:13:50.270Z,8.90
2022-09-16T08:16:19.709Z,7.88
2022-09-16T08:18:49.213Z,10.18
2022-09-16T08:21:21.654Z,11.10
2022-09-16T08:23:49.117Z,9.43
2022-09-16T08:26:17.931Z,8.82
2022-09-16T08:29:07.452Z,9.95
2022-09-16T08:31:33.827Z,11.90
2022-09-16T08:34:00.896Z,11.48
2022-09-16T08:36:28.077Z,9.13
2022-09-16T08:38:56.719Z,9.75
2022-09-16T08:41:33.646Z,9.18
2022-09-16T08:44:21.939Z,9.07
2022-09-16T08:46:51.969Z,9.45
2022-09-16T08:49:28.532Z,9.95
2022-09-16T08:51:57.250Z,10.25
2022-09-16T08:54:48.992Z,9.52
2022-09-16T08:57:20.598Z,11.88
2022-09-16T08:59:57.802Z,11.15
2022-09-16T09:02:38.874Z,10.20
2022-09-16T09:05:31.449Z,8.80
2022-09-16T09:08:29.717Z,9.43
2022-09-16T09:11:08.272Z,9.65
2022-09-16T09:14:10.637Z,9.70
2022-09-16T09:17:01.752Z,9.55
2022-09-16T09:19:53.107Z,9.38
2022-09-16T09:22:25.856Z,8.70
2022-09-16T09:25:10.894Z,9.88
2022-09-16T09:27:40.789Z,9.35
2022-09-16T09:30:33.824Z,9.93
2022-09-16T09:33:22.143Z,9.10
2022-09-16T09:36:11.807Z,9.48
2022-09-16T09:38:57.573Z,9.52
2022-09-16T09:41:36.825Z,10.05
2022-09-16T09:44:30.071Z,9.13
2022-09-16T09:47:03.530Z,8.38
2022-09-16T09:49:41.175Z,7.95
2022-09-16T09:52:16.671Z,9.60
2022-09-16T09:54:51.162Z,9.80
2022-09-16T09:57:33.145Z,7.88
2022-09-16T10:00:16.320Z,8.30
2022-09-16T10:02:49.648Z,8.52
2022-09-16T10:05:26.277Z,7.53
2022-09-16T10:07:57.567Z,7.80
2022-09-16T10:10:29.992Z,8.10
2022-09-16T10:13:08.057Z,6.85
2022-09-16T10:15:35.226Z,7.43
2022-09-16T10:18:13.725Z,7.45
2022-09-16T10:20:44.461Z,6.80
2022-09-16T10:23:19.709Z,6.28
2022-09-16T10:25:46.872Z,6.85
2022-09-16T10:28:26.743Z,6.20
2022-09-16T10:30:56.685Z,7.53
2022-09-16T10:33:37.421Z,6.35
2022-09-16T10:41:16.451Z,6.13
2022-09-16T10:43:56.729Z,6.10
2022-09-16T10:46:24.837Z,6.18
2022-09-16T10:48:57.294Z,6.30
2022-09-16T10:51:29.601Z,6.28
2022-09-16T10:53:59.784Z,6.53
2022-09-16T10:56:30.068Z,5.95
2022-09-16T10:59:10.540Z,5.53
2022-09-16T11:01:47.192Z,5.57
2022-09-16T11:04:18.331Z,5.40
2022-09-16T11:07:03.330Z,5.32
2022-09-16T11:09:44.389Z,6.20
2022-09-16T11:12:32.136Z,6.40
2022-09-16T11:15:20.014Z,6.45
2022-09-16T11:18:05.058Z,5.72
2022-09-16T11:20:50.193Z,5.72
2022-09-16T11:23:26.905Z,6.63
2022-09-16T11:25:53.939Z,5.65
2022-09-16T11:28:41.928Z,5.03
2022-09-16T11:31:12.066Z,6.43
2022-09-16T11:34:11.651Z,5.65
2022-09-16T11:37:07.015Z,4.75
2022-09-16T11:39:37.229Z,5.75
2022-09-16T11:42:24.108Z,5.53
2022-09-16T11:45:42.165Z,5.50
2022-09-16T11:48:24.088Z,4.95
2022-09-16T11:51:41.404Z,5.20
2022-09-16T11:56:56.246Z,7.28
2022-09-16T11:59:40.031Z,5.30
2022-09-16T12:02:17.035Z,4.03
2022-09-16T12:04:55.817Z,5.10
2022-09-16T12:07:46.287Z,4.68
2022-09-16T12:10:25.106Z,4.63
2022-09-16T12:13:15.638Z,4.80
2022-09-16T12:15:50.041Z,5.18
2022-09-16T12:18:21.845Z,5.32
2022-09-16T12:21:09.097Z,5.15
2022-09-16T12:23:43.228Z,4.90
2022-09-16T12:26:34.991Z,4.57
2022-09-16T12:29:33.584Z,4.72
2022-09-16T12:32:09.930Z,5.20
2022-09-16T12:34:43.643Z,5.20
2022-09-16T12:37:10.694Z,5.82
2022-09-16T12:39:38.529Z,6.13
2022-09-16T12:42:20.750Z,6.30
2022-09-16T12:44:50.574Z,7.38
2022-09-16T12:47:45.463Z,6.40
2022-09-16T12:50:13.190Z,7.60
2022-09-16T12:52:59.312Z,5.95
2022-09-16T12:55:50.666Z,6.85
2022-09-16T12:58:17.735Z,5.53
2022-09-16T13:01:00.268Z,5.78
2022-09-16T13:03:31.800Z,6.90
2022-09-16T13:06:07.541Z,6.18
2022-09-16T13:08:35.729Z,6.45
2022-09-16T13:14:00.160Z,5.25
2022-09-16T13:16:29.183Z,9.52
2022-09-16T13:19:23.808Z,5.30
2022-09-16T13:21:57.638Z,6.68
2022-09-16T13:24:39.246Z,6.78
2022-09-16T13:27:31.658Z,6.78
2022-09-16T13:30:13.669Z,7.60
2022-09-16T13:32:53.192Z,6.60
2022-09-16T13:35:21.052Z,6.90
2022-09-16T13:37:54.600Z,5.72
2022-09-16T13:40:21.829Z,5.82
2022-09-16T13:42:49.112Z,6.40
2022-09-16T13:45:34.109Z,8.07
2022-09-16T13:48:14.046Z,7.45
2022-09-16T13:50:45.061Z,6.15
2022-09-16T13:53:28.850Z,6.38
2022-09-16T13:56:20.563Z,5.82
2022-09-16T13:59:22.313Z,5.65
2022-09-16T14:02:29.545Z,4.95
2022-09-16T14:05:09.200Z,4.88
2022-09-16T14:07:56.551Z,5.88
2022-09-16T14:10:35.402Z,6.65
2022-09-16T14:13:14.580Z,6.25
2022-09-16T14:15:49.446Z,5.90
2022-09-16T14:18:21.277Z,6.53
2022-09-16T14:21:04.570Z,8.40
2022-09-16T14:23:33.820Z,6.40
2022-09-16T14:26:18.915Z,6.35
2022-09-16T14:28:46.496Z,6.60
2022-09-16T14:31:22.817Z,6.88
2022-09-16T14:33:57.130Z,7.45
2022-09-16T14:36:30.463Z,6.50
2022-09-16T14:39:11.900Z,6.70
2022-09-16T14:42:02.745Z,7.03
2022-09-16T14:44:47.986Z,10.80
2022-09-16T14:47:39.431Z,10.02
2022-09-16T14:50:21.132Z,8.27
2022-09-16T14:52:57.553Z,8.10
2022-09-16T14:55:30.426Z,28.38
2022-09-16T14:58:01.873Z,22.45
2022-09-16T15:00:38.768Z,15.02
2022-09-16T15:03:17.538Z,10.48
2022-09-16T15:05:47.588Z,7.78
2022-09-16T15:08:46.208Z,9.70
2022-09-16T15:11:43.549Z,11.88
2022-09-16T15:14:07.704Z,8.98
2022-09-16T15:16:44.255Z,8.82
2022-09-16T15:19:25.567Z,8.23
2022-09-16T15:21:53.552Z,8.18
2022-09-16T15:24:26.969Z,8.27
2022-09-16T15:26:55.411Z,8.98
2022-09-16T15:29:23.176Z,11.30
2022-09-16T15:31:51.393Z,9.25
2022-09-16T15:34:21.907Z,11.50
2022-09-16T15:36:57.376Z,8.38
2022-09-16T15:39:33.159Z,8.60
2022-09-16T15:42:13.369Z,8.18
2022-09-16T15:44:58.501Z,8.95
2022-09-16T15:47:29.395Z,7.90
2022-09-16T15:50:12.628Z,9.13
2022-09-16T15:53:03.536Z,8.85
2022-09-16T15:58:16.902Z,8.63
2022-09-16T16:01:21.129Z,8.43
2022-09-16T16:03:56.747Z,8.80
2022-09-16T16:06:58.626Z,9.52
2022-09-16T16:09:30.486Z,10.63
2022-09-16T16:12:00.028Z,8.65
2022-09-16T16:14:32.286Z,7.88
2022-09-16T16:17:14.221Z,7.47
2022-09-16T16:19:43.267Z,6.05
2022-09-16T16:22:12.163Z,6.72
2022-09-16T16:24:40.148Z,6.38
2022-09-16T16:27:08.915Z,8.98
2022-09-16T16:29:36.360Z,6.75
2022-09-16T16:32:08.202Z,7.13
2022-09-16T16:34:41.522Z,7.20
2022-09-16T16:37:19.152Z,7.05
2022-09-16T16:39:55.974Z,7.80
2022-09-16T16:42:24.980Z,7.03
2022-09-16T16:44:52.459Z,6.65
2022-09-16T16:47:19.843Z,7.47
2022-09-16T16:49:51.391Z,7.65
2022-09-16T16:52:19.055Z,7.82
2022-09-16T16:54:46.832Z,8.38
2022-09-16T16:57:14.850Z,7.22
2022-09-16T16:59:43.662Z,8.18
2022-09-16T17:02:15.399Z,7.97
2022-09-16T17:04:43.516Z,8.20
2022-09-16T17:07:27.872Z,8.57
2022-09-16T17:09:57.512Z,7.47
2022-09-16T17:12:26.523Z,8.15
2022-09-16T17:14:54.223Z,7.20
2022-09-16T17:17:21.563Z,7.82
2022-09-16T17:19:48.820Z,7.63
2022-09-16T17:22:16.446Z,8.63
2022-09-16T17:24:43.639Z,7.85
2022-09-16T17:27:15.146Z,7.40
2022-09-16T17:29:42.646Z,7.72
2022-09-16T17:32:10.066Z,8.18
2022-09-16T17:34:38.749Z,8.30
2022-09-16T17:37:08.492Z,8.55
2022-09-16T17:39:36.067Z,9.52
2022-09-16T17:42:03.483Z,9.88
2022-09-16T17:44:31.020Z,10.88
2022-09-16T17:46:58.284Z,10.48
2022-09-16T17:49:26.103Z,10.93
2022-09-16T17:51:54.004Z,11.98
2022-09-16T17:54:22.294Z,11.90
2022-09-16T17:56:50.416Z,13.05
2022-09-16T17:59:18.970Z,12.35
2022-09-16T18:01:46.833Z,12.23
2022-09-16T18:04:14.021Z,11.82
2022-09-16T18:06:46.399Z,12.15
2022-09-16T18:09:16.417Z,11.73
2022-09-16T18:11:45.021Z,12.68
2022-09-16T18:14:23.714Z,12.95
2022-09-16T18:16:51.451Z,12.57
2022-09-16T18:19:19.499Z,11.93
2022-09-16T18:21:49.663Z,11.75
2022-09-16T18:24:17.148Z,10.90
2022-09-16T18:26:44.938Z,9.65
2022-09-16T18:31:46.045Z,9.68
2022-09-16T18:34:15.005Z,10.25
2022-09-16T18:36:43.172Z,11.30
2022-09-16T18:39:14.450Z,9.65
2022-09-16T18:41:43.331Z,10.15
2022-09-16T18:44:17.007Z,10.80
2022-09-16T18:46:44.470Z,10.15
2022-09-16T18:49:13.913Z,8.75
2022-09-16T18:51:48.488Z,9.48
2022-09-16T18:54:25.063Z,9.57
2022-09-16T18:56:53.226Z,10.20
2022-09-16T18:59:24.783Z,9.68
2022-09-16T19:01:54.383Z,9.55
2022-09-16T19:04:24.903Z,10.50
2022-09-16T19:06:54.726Z,9.60
2022-09-16T19:09:23.818Z,9.05
2022-09-16T19:11:56.219Z,9.55
2022-09-16T19:14:27.533Z,9.75
2022-09-16T19:16:55.452Z,9.43
2022-09-16T19:19:23.251Z,9.73
2022-09-16T19:21:50.512Z,9.73
2022-09-16T19:24:21.216Z,10.23
2022-09-16T19:29:17.451Z,9.75
2022-09-16T19:31:47.221Z,9.27
2022-09-16T19:34:16.098Z,10.23
2022-09-16T19:36:44.051Z,9.48
2022-09-16T19:39:12.375Z,10.38
2022-09-16T19:41:40.670Z,9.80
2022-09-16T19:44:12.329Z,8.95
2022-09-16T19:46:42.633Z,8.75
2022-09-16T19:49:15.982Z,8.65
2022-09-16T19:51:43.509Z,8.93
2022-09-16T19:54:10.684Z,9.82
2022-09-16T19:56:38.029Z,8.75
2022-09-16T19:59:06.089Z,10.15
2022-09-16T20:01:35.328Z,9.93
2022-09-16T20:04:05.830Z,9.48
2022-09-16T20:06:36.361Z,9.80
2022-09-16T20:09:06.937Z,10.38
2022-09-16T20:11:37.097Z,9.70
2022-09-16T20:14:07.487Z,9.43
2022-09-16T20:16:37.862Z,9.15
2022-09-16T20:19:08.268Z,9.35
2022-09-16T20:21:35.883Z,10.13
2022-09-16T20:24:07.893Z,9.65
2022-09-16T20:26:36.190Z,10.70
2022-09-16T20:29:03.901Z,10.38
2022-09-16T20:31:33.654Z,10.82
2022-09-16T20:34:01.838Z,10.60
2022-09-16T20:36:30.849Z,10.10
2022-09-16T20:39:01.313Z,10.48
2022-09-16T20:41:31.302Z,11.05
2022-09-16T20:43:59.508Z,10.25
2022-09-16T20:46:37.318Z,10.27
2022-09-16T20:49:08.224Z,10.40
2022-09-16T20:51:35.356Z,10.10
2022-09-16T20:54:08.666Z,9.80
2022-09-16T20:56:39.096Z,10.38
2022-09-16T20:59:12.246Z,11.65
2022-09-16T21:01:41.668Z,11.68
2022-09-16T21:04:13.558Z,10.93
2022-09-16T21:06:40.777Z,11.32
2022-09-16T21:09:10.680Z,11.13
2022-09-16T21:11:38.741Z,11.00
2022-09-16T21:14:07.067Z,11.13
2022-09-16T21:16:36.736Z,11.73
2022-09-16T21:19:09.342Z,11.13
2022-09-16T21:21:39.789Z,11.32
2022-09-16T21:24:17.551Z,11.77
2022-09-16T21:26:46.163Z,11.35
2022-09-16T21:29:21.211Z,10.98
2022-09-16T21:31:49.044Z,11.45
2022-09-16T21:34:19.101Z,10.73
2022-09-16T21:36:46.916Z,11.27
2022-09-16T21:39:15.591Z,11.57
2022-09-16T21:41:47.224Z,11.30
2022-09-16T21:44:15.078Z,11.73
2022-09-16T21:46:46.420Z,11.75
2022-09-16T21:49:24.393Z,12.48
2022-09-16T21:51:54.143Z,10.90
2022-09-16T21:54:22.196Z,10.07
2022-09-16T21:56:50.343Z,10.85
2022-09-16T21:59:19.912Z,10.35
2022-09-16T22:01:49.630Z,10.07
2022-09-16T22:04:20.206Z,10.77
2022-09-16T22:06:48.895Z,10.07
2022-09-16T22:09:16.108Z,9.02
2022-09-16T22:11:43.702Z,9.75
2022-09-16T22:14:11.357Z,9.63
2022-09-16T22:16:39.756Z,9.82
2022-09-16T22:19:09.436Z,11.88
2022-09-16T22:21:39.843Z,10.70
2022-09-16T22:24:07.624Z,10.40
2022-09-16T22:26:35.555Z,10.63
2022-09-16T22:29:03.034Z,11.50
2022-09-16T22:31:32.109Z,11.45
2022-09-16T22:34:01.844Z,10.98
2022-09-16T22:36:31.709Z,10.37
2022-09-16T22:39:01.602Z,9.57
2022-09-16T22:41:29.227Z,9.57
2022-09-16T22:43:56.417Z,9.68
2022-09-16T22:46:29.494Z,8.90
2022-09-16T22:48:58.315Z,9.10
2022-09-16T22:51:26.654Z,9.52
2022-09-16T22:53:54.300Z,9.48
2022-09-16T22:56:28.447Z,13.45
2022-09-16T22:58:56.829Z,9.15
2022-09-16T23:01:27.152Z,8.85
2022-09-16T23:03:57.339Z,8.30
2022-09-16T23:06:26.952Z,7.95
2022-09-16T23:08:54.515Z,7.90
2022-09-16T23:11:28.733Z,7.88
2022-09-16T23:13:56.708Z,8.07
2022-09-16T23:16:29.749Z,8.15
2022-09-16T23:18:59.701Z,8.50
2022-09-16T23:21:27.526Z,8.10
2022-09-16T23:23:56.665Z,8.20
2022-09-16T23:26:26.578Z,7.78
2022-09-16T23:28:56.242Z,7.55
2022-09-16T23:31:26.611Z,8.27
2022-09-16T23:33:54.454Z,7.57
2022-09-16T23:36:24.363Z,7.65
2022-09-16T23:38:52.504Z,7.90
2022-09-16T23:41:22.469Z,7.43
2022-09-16T23:43:50.500Z,7.03
2022-09-16T23:46:21.567Z,7.70
2022-09-16T23:48:52.482Z,6.55
2022-09-16T23:51:24.713Z,6.90
2022-09-16T23:53:56.687Z,7.18
2022-09-16T23:56:23.985Z,7.05
2022-09-16T23:58:51.285Z,7.50
